createdAt,value
2019-05-06T00:00:55.340Z,49.02
2019-05-06T00:03:13.938Z,49.23
2019-05-06T00:05:40.574Z,49.84
2019-05-06T00:15:57.585Z,50.44
2019-05-06T00:18:24.639Z,50.20
2019-05-06T00:20:51.628Z,50.36
2019-05-06T00:23:18.289Z,50.00
2019-05-06T00:25:53.524Z,50.24
2019-05-06T00:28:20.154Z,50.00
2019-05-06T00:30:47.028Z,49.88
2019-05-06T00:33:13.675Z,50.02
2019-05-06T00:35:40.497Z,50.71
2019-05-06T00:38:08.046Z,50.37
2019-05-06T00:40:34.661Z,50.35
2019-05-06T00:43:04.872Z,51.09
2019-05-06T00:45:34.381Z,51.83
2019-05-06T00:48:04.626Z,51.40
2019-05-06T00:50:34.817Z,51.19
2019-05-06T00:53:02.053Z,51.46
2019-05-06T00:55:30.974Z,51.59
2019-05-06T00:57:58.791Z,50.13
2019-05-06T01:00:27.149Z,49.86
2019-05-06T01:02:56.557Z,50.12
2019-05-06T01:05:24.455Z,50.27
2019-05-06T01:07:55.555Z,49.10
2019-05-06T01:10:24.193Z,50.01
2019-05-06T01:12:50.847Z,49.86
2019-05-06T01:15:20.538Z,50.05
2019-05-06T01:17:49.195Z,49.33
2019-05-06T01:20:16.236Z,50.61
2019-05-06T01:22:46.577Z,50.18
2019-05-06T01:25:14.215Z,51.69
2019-05-06T01:27:44.670Z,52.06
2019-05-06T01:30:13.728Z,51.27
2019-05-06T01:32:43.631Z,51.48
2019-05-06T01:35:09.959Z,51.21
2019-05-06T01:37:36.596Z,50.79
2019-05-06T01:40:04.423Z,50.89
2019-05-06T01:42:34.480Z,51.03
2019-05-06T01:45:00.698Z,51.84
2019-05-06T01:47:30.715Z,51.17
2019-05-06T01:50:01.060Z,50.09
2019-05-06T01:52:29.475Z,49.82
2019-05-06T01:54:56.035Z,50.15
2019-05-06T01:57:24.415Z,51.29
2019-05-06T01:59:54.025Z,50.83
2019-05-06T02:02:24.018Z,50.92
2019-05-06T02:04:50.878Z,50.77
2019-05-06T02:07:23.929Z,50.98
2019-05-06T02:09:54.466Z,51.64
2019-05-06T02:12:20.749Z,50.90
2019-05-06T02:14:47.678Z,51.44
2019-05-06T02:17:14.600Z,53.00
2019-05-06T02:19:43.664Z,53.60
2019-05-06T02:22:10.058Z,53.56
2019-05-06T02:24:38.952Z,53.46
2019-05-06T02:27:06.151Z,53.30
2019-05-06T02:29:34.860Z,53.79
2019-05-06T02:32:19.903Z,54.01
2019-05-06T02:34:30.477Z,53.48
2019-05-06T02:37:25.155Z,54.13
2019-05-06T02:39:33.923Z,55.85
2019-05-06T02:42:04.394Z,56.80
2019-05-06T02:44:33.760Z,56.48
2019-05-06T02:47:05.397Z,55.95
2019-05-06T02:49:35.441Z,56.05
2019-05-06T02:52:03.308Z,55.78
2019-05-06T02:54:34.535Z,55.29
2019-05-06T02:57:04.269Z,55.31
2019-05-06T02:59:33.146Z,56.01
2019-05-06T03:02:03.366Z,56.12
2019-05-06T03:04:32.941Z,56.10
2019-05-06T03:06:59.476Z,55.35
2019-05-06T03:09:27.161Z,55.78
2019-05-06T03:11:54.234Z,56.38
2019-05-06T03:14:23.381Z,55.77
2019-05-06T03:16:53.732Z,54.96
2019-05-06T03:19:24.059Z,55.54
2019-05-06T03:21:54.716Z,56.17
2019-05-06T03:24:23.828Z,55.46
2019-05-06T03:26:56.741Z,56.71
2019-05-06T03:29:25.356Z,56.51
2019-05-06T03:31:56.639Z,56.81
2019-05-06T03:34:42.990Z,56.29
2019-05-06T03:36:56.260Z,56.30
2019-05-06T03:39:19.898Z,56.20
2019-05-06T03:41:48.548Z,56.30
2019-05-06T03:44:19.650Z,55.25
2019-05-06T03:46:46.616Z,54.83
2019-05-06T03:49:13.555Z,54.81
2019-05-06T03:51:43.146Z,54.75
2019-05-06T03:54:12.979Z,54.16
2019-05-06T03:56:43.314Z,53.65
2019-05-06T03:59:13.339Z,53.81
2019-05-06T04:01:45.030Z,53.51
2019-05-06T04:04:15.120Z,53.85
2019-05-06T04:06:44.565Z,53.52
2019-05-06T04:09:13.256Z,53.28
2019-05-06T04:11:43.347Z,53.68
2019-05-06T04:14:13.994Z,53.31
2019-05-06T04:16:43.758Z,53.32
2019-05-06T04:19:09.083Z,53.12
2019-05-06T04:21:39.290Z,52.58
2019-05-06T04:24:07.832Z,52.49
2019-05-06T04:26:37.583Z,52.65
2019-05-06T04:29:05.713Z,52.42
2019-05-06T04:31:35.981Z,51.36
2019-05-06T04:34:12.801Z,51.96
2019-05-06T04:36:33.859Z,52.42
2019-05-06T04:39:05.424Z,51.89
2019-05-06T04:41:34.084Z,52.02
2019-05-06T04:44:02.905Z,51.90
2019-05-06T04:46:29.096Z,51.22
2019-05-06T04:48:55.949Z,51.46
2019-05-06T04:51:24.780Z,51.02
2019-05-06T04:53:53.675Z,50.05
2019-05-06T04:56:19.703Z,49.84
2019-05-06T04:58:46.637Z,49.92
2019-05-06T05:01:15.732Z,49.49
2019-05-06T05:03:42.770Z,49.81
2019-05-06T05:06:09.707Z,50.44
2019-05-06T05:08:36.823Z,49.41
2019-05-06T05:11:03.746Z,49.32
2019-05-06T05:13:32.764Z,48.49
2019-05-06T05:15:59.038Z,49.37
2019-05-06T05:18:25.696Z,48.59
2019-05-06T05:20:52.848Z,48.76
2019-05-06T05:23:19.597Z,49.76
2019-05-06T05:25:46.185Z,48.18
2019-05-06T05:28:13.695Z,48.16
2019-05-06T05:30:42.785Z,47.73
2019-05-06T05:33:08.855Z,46.86
2019-05-06T05:35:36.034Z,47.73
2019-05-06T05:38:03.039Z,48.02
2019-05-06T05:40:32.066Z,48.25
2019-05-06T05:42:58.433Z,48.69
2019-05-06T05:45:25.113Z,47.07
2019-05-06T05:47:52.271Z,47.45
2019-05-06T05:50:19.550Z,47.59
2019-05-06T05:52:46.147Z,47.97
2019-05-06T05:55:13.365Z,46.73
2019-05-06T05:57:39.956Z,47.27
2019-05-06T06:00:06.813Z,47.57
2019-05-06T06:02:33.581Z,47.91
2019-05-06T06:05:02.519Z,46.40
2019-05-06T06:07:28.893Z,46.27
2019-05-06T06:09:56.497Z,45.79
2019-05-06T06:12:23.267Z,45.64
2019-05-06T06:14:53.416Z,45.64
2019-05-06T06:17:18.410Z,46.28
2019-05-06T06:19:45.078Z,44.63
2019-05-06T06:22:11.861Z,44.86
2019-05-06T06:24:38.545Z,44.60
2019-05-06T06:27:06.230Z,44.23
2019-05-06T06:29:34.895Z,44.86
2019-05-06T06:32:04.557Z,44.11
2019-05-06T06:34:34.810Z,43.87
2019-05-06T06:37:02.575Z,43.70
2019-05-06T06:39:29.373Z,43.56
2019-05-06T06:41:56.002Z,44.30
2019-05-06T06:44:22.835Z,44.82
2019-05-06T06:46:49.710Z,44.36
2019-05-06T06:49:17.125Z,45.09
2019-05-06T06:51:43.779Z,44.41
2019-05-06T06:54:12.317Z,43.79
2019-05-06T06:56:39.862Z,43.87
2019-05-06T06:59:07.166Z,43.55
2019-05-06T07:01:34.082Z,43.37
2019-05-06T07:04:06.785Z,42.27
2019-05-06T07:06:28.987Z,42.68
2019-05-06T07:08:55.589Z,42.93
2019-05-06T07:11:22.615Z,41.81
2019-05-06T07:13:49.538Z,42.13
2019-05-06T07:16:16.621Z,43.87
2019-05-06T07:18:43.253Z,42.69
2019-05-06T07:21:13.869Z,41.70
2019-05-06T07:23:41.949Z,41.77
2019-05-06T07:26:08.368Z,42.51
2019-05-06T07:28:35.089Z,42.48
2019-05-06T07:31:17.468Z,41.10
2019-05-06T07:33:33.213Z,41.66
2019-05-06T07:35:59.394Z,41.01
2019-05-06T07:38:26.434Z,40.96
2019-05-06T07:40:53.872Z,41.81
2019-05-06T07:43:22.029Z,42.82
2019-05-06T07:45:48.919Z,40.24
2019-05-06T07:48:15.660Z,41.55
2019-05-06T07:50:42.617Z,40.41
2019-05-06T07:53:09.514Z,41.73
2019-05-06T07:55:36.450Z,40.15
2019-05-06T07:58:03.217Z,40.75
2019-05-06T08:00:32.555Z,40.54
2019-05-06T08:02:58.603Z,40.56
2019-05-06T08:05:25.304Z,39.96
2019-05-06T08:07:55.065Z,40.42
2019-05-06T08:10:22.257Z,39.31
2019-05-06T08:12:49.107Z,39.32
2019-05-06T08:15:16.030Z,39.50
2019-05-06T08:17:42.700Z,39.40
2019-05-06T08:20:09.593Z,38.70
2019-05-06T08:22:36.192Z,38.26
2019-05-06T08:25:03.576Z,37.91
2019-05-06T08:27:32.592Z,38.31
2019-05-06T08:29:59.158Z,38.98
2019-05-06T08:32:25.786Z,38.42
2019-05-06T08:34:52.648Z,38.00
2019-05-06T08:37:19.287Z,37.64
2019-05-06T08:39:46.567Z,36.77
2019-05-06T08:42:13.584Z,37.53
2019-05-06T08:44:42.567Z,36.03
2019-05-06T08:47:08.792Z,36.83
2019-05-06T08:49:35.585Z,36.95
2019-05-06T08:52:02.593Z,35.35
2019-05-06T08:54:29.235Z,37.24
2019-05-06T08:56:56.207Z,37.19
2019-05-06T08:59:24.029Z,37.23
2019-05-06T09:01:53.377Z,36.88
2019-05-06T09:04:19.632Z,38.10
2019-05-06T09:06:46.232Z,37.90
2019-05-06T09:09:13.431Z,37.29
2019-05-06T09:11:40.074Z,36.80
2019-05-06T09:14:09.643Z,36.56
2019-05-06T09:16:35.398Z,37.31
2019-05-06T09:19:04.425Z,36.43
2019-05-06T09:21:30.407Z,36.98
2019-05-06T09:23:56.998Z,37.16
2019-05-06T09:26:23.842Z,35.90
2019-05-06T09:28:52.964Z,34.70
2019-05-06T09:31:19.245Z,36.50
2019-05-06T09:33:45.855Z,36.30
2019-05-06T09:36:12.871Z,36.48
2019-05-06T09:38:39.736Z,36.96
2019-05-06T09:41:06.617Z,36.23
2019-05-06T09:43:33.511Z,36.68
2019-05-06T09:46:02.299Z,37.37
2019-05-06T09:48:28.879Z,36.46
2019-05-06T09:50:55.960Z,36.25
2019-05-06T09:53:23.172Z,35.98
2019-05-06T09:55:52.200Z,37.00
2019-05-06T09:58:19.465Z,37.51
2019-05-06T10:00:46.076Z,36.67
2019-05-06T10:03:13.098Z,36.85
2019-05-06T10:05:39.767Z,37.17
2019-05-06T10:08:07.270Z,36.19
2019-05-06T10:10:33.871Z,37.26
2019-05-06T10:13:02.562Z,38.13
2019-05-06T10:15:29.065Z,36.35
2019-05-06T10:17:55.801Z,37.07
2019-05-06T10:20:22.455Z,38.24
2019-05-06T10:22:49.119Z,36.41
2019-05-06T10:25:16.029Z,36.43
2019-05-06T10:27:42.906Z,37.02
2019-05-06T10:30:12.366Z,36.05
2019-05-06T10:32:38.345Z,36.27
2019-05-06T10:35:07.116Z,37.48
2019-05-06T10:37:34.713Z,36.74
2019-05-06T10:40:03.190Z,37.16
2019-05-06T10:42:42.985Z,37.35
2019-05-06T10:45:08.569Z,36.56
2019-05-06T10:47:37.474Z,37.17
2019-05-06T10:50:04.082Z,36.80
2019-05-06T10:52:35.050Z,36.43
2019-05-06T10:55:03.392Z,36.84
2019-05-06T10:57:32.638Z,36.86
2019-05-06T10:59:58.629Z,36.14
2019-05-06T11:02:27.566Z,35.51
2019-05-06T11:04:54.266Z,36.36
2019-05-06T11:07:29.387Z,35.97
2019-05-06T11:09:53.241Z,35.94
2019-05-06T11:12:22.156Z,35.86
2019-05-06T11:14:55.336Z,35.19
2019-05-06T11:17:23.291Z,36.26
2019-05-06T11:19:53.338Z,35.40
2019-05-06T11:22:24.723Z,35.40
2019-05-06T11:24:54.688Z,35.59
2019-05-06T11:27:31.100Z,36.64
2019-05-06T11:29:52.908Z,36.18
2019-05-06T11:32:21.878Z,37.11
2019-05-06T11:34:49.283Z,36.29
2019-05-06T11:37:16.427Z,35.91
2019-05-06T11:39:43.293Z,36.03
2019-05-06T11:42:25.000Z,35.79
2019-05-06T11:44:43.883Z,36.56
2019-05-06T11:47:09.288Z,37.00
2019-05-06T11:49:36.436Z,36.43
2019-05-06T11:52:03.334Z,36.33
2019-05-06T11:54:29.932Z,37.07
2019-05-06T11:56:58.620Z,37.66
2019-05-06T11:59:25.636Z,37.47
2019-05-06T12:01:53.402Z,37.38
2019-05-06T12:04:23.335Z,37.46
2019-05-06T12:06:52.610Z,38.32
2019-05-06T12:09:19.019Z,37.13
2019-05-06T12:11:45.978Z,37.01
2019-05-06T12:14:13.599Z,37.47
2019-05-06T12:16:40.923Z,36.78
2019-05-06T12:19:07.535Z,37.90
2019-05-06T12:21:34.147Z,37.77
2019-05-06T12:24:02.882Z,36.53
2019-05-06T12:26:29.309Z,36.23
2019-05-06T12:28:57.358Z,38.95
2019-05-06T12:31:23.932Z,37.43
2019-05-06T12:33:53.524Z,38.32
2019-05-06T12:36:22.772Z,38.90
2019-05-06T12:38:52.444Z,39.00
2019-05-06T12:41:18.244Z,38.75
2019-05-06T12:43:45.360Z,38.58
2019-05-06T12:46:13.267Z,39.25
2019-05-06T12:48:43.820Z,38.77
2019-05-06T12:51:09.686Z,39.00
2019-05-06T12:53:36.853Z,37.94
2019-05-06T12:56:03.600Z,39.56
2019-05-06T12:58:30.362Z,38.32
2019-05-06T13:00:57.269Z,37.63
2019-05-06T13:03:23.908Z,39.35
2019-05-06T13:05:52.137Z,38.14
2019-05-06T13:08:21.058Z,37.59
2019-05-06T13:10:47.931Z,37.97
2019-05-06T13:13:16.548Z,39.33
2019-05-06T13:15:46.507Z,38.79
2019-05-06T13:18:13.707Z,38.44
2019-05-06T13:20:49.125Z,37.49
2019-05-06T13:23:17.278Z,39.54
2019-05-06T13:25:42.271Z,38.30
2019-05-06T13:28:07.586Z,38.55
2019-05-06T13:30:34.179Z,38.29
2019-05-06T13:33:03.823Z,37.64
2019-05-06T13:35:29.483Z,39.06
2019-05-06T13:37:56.441Z,38.34
2019-05-06T13:40:26.869Z,38.41
2019-05-06T13:42:52.829Z,37.90
2019-05-06T13:45:19.483Z,38.69
2019-05-06T13:47:46.401Z,39.38
2019-05-06T13:50:13.075Z,38.89
2019-05-06T13:52:39.656Z,38.44
2019-05-06T13:55:06.376Z,38.66
2019-05-06T13:57:33.534Z,39.14
2019-05-06T14:00:02.896Z,38.52
2019-05-06T14:02:28.916Z,39.88
2019-05-06T14:04:55.802Z,39.69
2019-05-06T14:07:24.383Z,39.60
2019-05-06T14:09:53.004Z,38.70
2019-05-06T14:12:21.658Z,38.64
2019-05-06T14:14:48.098Z,38.87
2019-05-06T14:17:14.686Z,39.06
2019-05-06T14:19:43.060Z,39.28
2019-05-06T14:22:12.333Z,37.87
2019-05-06T14:24:38.631Z,37.00
2019-05-06T14:27:05.540Z,36.98
2019-05-06T14:29:32.948Z,37.01
2019-05-06T14:31:59.986Z,38.17
2019-05-06T14:34:27.267Z,38.45
2019-05-06T14:36:53.939Z,38.06
2019-05-06T14:39:23.648Z,37.03
2019-05-06T14:41:48.918Z,37.24
2019-05-06T14:44:15.695Z,36.43
2019-05-06T14:46:42.653Z,36.93
2019-05-06T14:49:09.683Z,37.04
2019-05-06T14:51:36.268Z,36.69
2019-05-06T14:54:03.124Z,37.12
2019-05-06T14:56:31.910Z,37.42
2019-05-06T14:58:58.082Z,36.24
2019-05-06T15:01:24.958Z,36.74
2019-05-06T15:03:52.391Z,37.16
2019-05-06T15:06:19.084Z,36.14
2019-05-06T15:08:45.720Z,35.44
2019-05-06T15:11:12.698Z,36.02
2019-05-06T15:13:39.347Z,36.12
2019-05-06T15:16:06.251Z,36.22
2019-05-06T15:18:32.899Z,35.47
2019-05-06T15:21:27.496Z,35.71
2019-05-06T15:23:28.064Z,34.40
2019-05-06T15:25:54.738Z,35.48
2019-05-06T15:28:22.607Z,35.76
2019-05-06T15:30:49.336Z,35.99
2019-05-06T15:33:16.451Z,35.01
2019-05-06T15:35:43.273Z,35.70
2019-05-06T15:38:10.119Z,35.52
2019-05-06T15:40:36.928Z,35.75
2019-05-06T15:43:03.805Z,35.89
2019-05-06T15:45:32.376Z,35.98
2019-05-06T15:47:59.265Z,35.11
2019-05-06T15:50:25.891Z,34.64
2019-05-06T15:52:53.895Z,35.62
2019-05-06T15:55:22.593Z,34.94
2019-05-06T15:57:49.524Z,36.71
2019-05-06T16:00:16.123Z,36.73
2019-05-06T16:02:42.893Z,36.48
2019-05-06T16:05:13.858Z,34.76
2019-05-06T16:07:38.527Z,35.15
2019-05-06T16:10:05.269Z,36.47
2019-05-06T16:12:31.857Z,36.03
2019-05-06T16:14:58.722Z,35.68
2019-05-06T16:17:25.378Z,35.82
2019-05-06T16:19:52.039Z,35.97
2019-05-06T16:22:18.627Z,35.53
2019-05-06T16:24:45.703Z,35.82
2019-05-06T16:27:12.512Z,36.19
2019-05-06T16:29:39.172Z,36.67
2019-05-06T16:32:06.079Z,36.38
2019-05-06T16:34:32.847Z,35.22
2019-05-06T16:37:01.939Z,36.16
2019-05-06T16:39:29.020Z,37.14
2019-05-06T16:41:55.627Z,36.15
2019-05-06T16:44:22.228Z,35.83
2019-05-06T16:46:48.854Z,35.36
2019-05-06T16:49:15.442Z,36.92
2019-05-06T16:51:43.965Z,36.35
2019-05-06T16:54:12.353Z,35.90
2019-05-06T16:56:39.195Z,35.53
2019-05-06T16:59:06.186Z,35.88
2019-05-06T17:01:34.515Z,36.41
2019-05-06T17:04:03.112Z,35.82
2019-05-06T17:06:32.474Z,35.81
2019-05-06T17:08:58.333Z,35.88
2019-05-06T17:11:30.352Z,35.96
2019-05-06T17:13:53.411Z,37.13
2019-05-06T17:16:22.083Z,35.50
2019-05-06T17:18:48.577Z,36.41
2019-05-06T17:21:15.429Z,35.68
2019-05-06T17:23:42.437Z,36.09
2019-05-06T17:26:09.016Z,36.19
2019-05-06T17:28:35.883Z,36.66
2019-05-06T17:31:03.669Z,35.79
2019-05-06T17:33:31.493Z,36.46
2019-05-06T17:35:59.444Z,36.57
2019-05-06T17:38:26.083Z,35.95
2019-05-06T17:40:52.700Z,37.27
2019-05-06T17:43:19.452Z,37.24
2019-05-06T17:45:58.341Z,37.35
2019-05-06T17:48:14.892Z,36.39
2019-05-06T17:50:42.023Z,37.64
2019-05-06T17:53:09.162Z,37.40
2019-05-06T17:55:36.738Z,37.57
2019-05-06T17:58:03.732Z,37.94
2019-05-06T18:00:32.346Z,38.17
2019-05-06T18:02:58.751Z,38.11
2019-05-06T18:05:25.488Z,36.90
2019-05-06T18:07:52.134Z,38.00
2019-05-06T18:10:19.352Z,39.32
2019-05-06T18:12:45.947Z,38.89
2019-05-06T18:15:13.426Z,38.87
2019-05-06T18:17:40.325Z,38.70
2019-05-06T18:20:07.082Z,39.44
2019-05-06T18:22:33.825Z,40.16
2019-05-06T18:25:02.237Z,39.56
2019-05-06T18:27:29.070Z,39.71
2019-05-06T18:30:04.354Z,40.11
2019-05-06T18:32:24.018Z,40.29
2019-05-06T18:34:52.700Z,40.38
2019-05-06T18:37:19.241Z,40.69
2019-05-06T18:39:46.135Z,41.01
2019-05-06T18:42:18.972Z,40.41
2019-05-06T18:47:20.590Z,42.09
2019-05-06T18:49:47.185Z,41.52
2019-05-06T18:52:14.913Z,41.99
2019-05-06T18:54:42.935Z,41.88
2019-05-06T18:57:09.615Z,40.89
2019-05-06T18:59:37.151Z,41.26
2019-05-06T19:02:03.878Z,41.18
2019-05-06T19:04:30.476Z,41.24
2019-05-06T19:07:09.350Z,41.69
2019-05-06T19:09:25.828Z,42.47
2019-05-06T19:11:54.481Z,42.92
2019-05-06T19:14:21.944Z,42.73
2019-05-06T19:16:52.159Z,43.36
2019-05-06T19:19:17.211Z,43.30
2019-05-06T19:21:45.299Z,43.08
2019-05-06T19:24:13.468Z,43.70
2019-05-06T19:26:40.059Z,44.18
2019-05-06T19:29:06.704Z,43.85
2019-05-06T19:34:07.674Z,44.18
2019-05-06T19:36:34.956Z,44.24
2019-05-06T19:39:02.218Z,44.47
2019-05-06T19:41:30.259Z,44.02
2019-05-06T19:43:56.906Z,44.37
2019-05-06T19:46:23.806Z,43.92
2019-05-06T19:48:52.417Z,44.21
2019-05-06T19:51:19.408Z,44.01
2019-05-06T19:53:46.113Z,44.84
2019-05-06T19:56:12.849Z,44.92
2019-05-06T19:58:40.231Z,45.61
2019-05-06T20:01:06.992Z,45.47
2019-05-06T20:03:33.858Z,45.69
2019-05-06T20:06:02.299Z,46.58
2019-05-06T20:08:29.673Z,46.42
2019-05-06T20:10:56.365Z,46.61
2019-05-06T20:13:23.277Z,46.71
2019-05-06T20:15:52.079Z,47.34
2019-05-06T20:18:18.505Z,46.83
2019-05-06T20:20:45.151Z,46.69
2019-05-06T20:23:12.676Z,46.88
2019-05-06T20:25:39.660Z,46.84
2019-05-06T20:28:06.244Z,47.18
2019-05-06T20:30:33.869Z,47.55
2019-05-06T20:33:00.520Z,47.93
2019-05-06T20:35:27.385Z,47.82
2019-05-06T20:37:54.287Z,47.76
2019-05-06T20:40:22.866Z,48.71
2019-05-06T20:42:49.790Z,49.15
2019-05-06T20:45:16.474Z,48.86
2019-05-06T20:47:43.124Z,48.99
2019-05-06T20:50:09.728Z,49.01
2019-05-06T20:52:37.166Z,49.04
2019-05-06T20:55:12.612Z,49.70
2019-05-06T20:57:32.158Z,49.94
2019-05-06T20:59:58.992Z,50.86
2019-05-06T21:02:25.982Z,51.01
2019-05-06T21:04:52.700Z,50.61
2019-05-06T21:07:19.347Z,50.23
2019-05-06T21:09:45.950Z,50.05
2019-05-06T21:12:12.589Z,50.39
2019-05-06T21:14:41.938Z,50.42
2019-05-06T21:17:09.151Z,49.80
2019-05-06T21:19:35.771Z,50.46
2019-05-06T21:22:03.002Z,50.82
2019-05-06T21:24:29.577Z,50.77
2019-05-06T21:26:58.217Z,51.02
2019-05-06T21:29:24.886Z,50.47
2019-05-06T21:31:53.080Z,50.47
2019-05-06T21:34:22.207Z,50.77
2019-05-06T21:36:50.642Z,51.08
2019-05-06T21:39:16.991Z,51.61
2019-05-06T21:41:43.584Z,51.24
2019-05-06T21:44:13.213Z,51.32
2019-05-06T21:46:40.061Z,51.41
2019-05-06T21:49:06.761Z,51.60
2019-05-06T21:51:33.566Z,51.89
2019-05-06T21:54:02.666Z,51.58
2019-05-06T21:56:28.617Z,51.10
2019-05-06T21:58:55.459Z,51.62
2019-05-06T22:01:23.335Z,52.56
2019-05-06T22:03:50.067Z,52.49
2019-05-06T22:06:17.160Z,52.13
2019-05-06T22:08:44.021Z,52.25
2019-05-06T22:11:11.072Z,52.07
2019-05-06T22:13:38.185Z,52.52
2019-05-06T22:16:05.088Z,52.95
2019-05-06T22:18:31.708Z,53.29
2019-05-06T22:20:59.097Z,52.09
2019-05-06T22:23:25.992Z,52.07
2019-05-06T22:25:52.599Z,52.32
2019-05-06T22:28:19.187Z,52.23
2019-05-06T22:30:45.789Z,52.26
2019-05-06T22:33:13.483Z,52.43
2019-05-06T22:35:40.454Z,52.32
2019-05-06T22:38:07.762Z,52.89
2019-05-06T22:40:34.350Z,53.10
2019-05-06T22:43:03.072Z,53.17
2019-05-06T22:45:29.437Z,53.07
2019-05-06T22:47:56.080Z,53.06
2019-05-06T22:50:23.192Z,53.74
2019-05-06T22:52:49.777Z,53.71
2019-05-06T22:55:16.939Z,53.73
2019-05-06T22:57:43.539Z,53.41
2019-05-06T23:00:12.569Z,53.48
2019-05-06T23:02:38.973Z,53.11
2019-05-06T23:05:06.279Z,53.19
2019-05-06T23:07:34.080Z,53.03
2019-05-06T23:10:00.810Z,53.21
2019-05-06T23:12:27.682Z,53.45
2019-05-06T23:14:54.261Z,53.07
2019-05-06T23:17:21.094Z,53.28
2019-05-06T23:19:47.703Z,53.42
2019-05-06T23:22:14.297Z,53.29
2019-05-06T23:24:41.076Z,53.07
2019-05-06T23:27:07.687Z,53.13
2019-05-06T23:29:34.262Z,53.34
2019-05-06T23:32:02.995Z,53.75
2019-05-06T23:34:30.023Z,53.71
2019-05-06T23:36:56.650Z,53.75
2019-05-06T23:39:23.658Z,53.81
2019-05-06T23:41:50.301Z,53.87
2019-05-06T23:44:17.118Z,54.05
2019-05-06T23:46:44.001Z,53.91
2019-05-06T23:49:12.901Z,53.90
2019-05-06T23:51:39.135Z,53.62
2019-05-06T23:54:05.873Z,53.98
2019-05-06T23:56:32.628Z,54.49
2019-05-06T23:59:00.941Z,54.31
